Burnet, TX

1:33 PM CDT on September 21, 2014 (GMT -0500)
South Oatmeal | Change Station
CLOSE
Current Station
Personal Weather Station
Location: Bertram, TX
Elevation: 1112 ft
Nearby Weather Stations

Elev 1112 ft 30.62 °N, 98.10 °W | Updated 4 seconds ago

Overcast
Overcast
85.5 °F
Feels Like 89 °F
N
3.3
Wind Variable Wind from ESE
Gusts 6.0 mph

Today
High -- | Low -- °F
--% Chance of Precip.
Yesterday
High -- | Low -- °F
Precip. -- in
7:20 AM 7:30 PM
Waning Crescent, 6% visible
Pressure 30.08 in
Visibility 10.0 miles
Clouds Mostly Cloudy 3900 ft
Overcast 4900 ft
Heat Index 89 °F
Dew Point 68 °F
Humidity 57%
Rainfall 0.00 in
Snow Depth Not available.
UV 3 out of 12
Pollen 10.30 out of 12
Air Quality Not available.
Flu Activity Not available.
METAR KBMQ 211753Z AUTO VRB04KT 10SM BKN039 OVC049 30/19 A3013 RMK AO2 SLP184 T03000189 10306 20217 58003

More Conditions Fewer Conditions

Pressure 30.08 in
Visibility 10.0 miles
Clouds Mostly Cloudy 3900 ft
Overcast 4900 ft
Heat Index 89 °F
Dew Point 68 °F
Humidity 57%
Rainfall 0.00 in
Snow Depth Not available.
UV 3 out of 12
Pollen 10.30 out of 12
Air Quality Not available.
Flu Activity Not available.
METAR KBMQ 211753Z AUTO VRB04KT 10SM BKN039 OVC049 30/19 A3013 RMK AO2 SLP184 T03000189 10306 20217 58003

More Conditions Fewer Conditions

10-Day Weather Forecast

Almanac

Astronomy

Sep. 21, 2014 Rise Set
Actual Time 7:20 AM CDT 7:30 PM CDT
Civil Twilight 6:56 AM CDT 7:54 PM CDT
Nautical Twilight 6:28 AM CDT 8:22 PM CDT
Astronomical Twilight 6:00 AM CDT 8:51 PM CDT
Moon 5:03 AM CDT 6:01 PM CDT
Length of Visible Light 12h 58m
Length of Day
12h 10m
Tomorrow will be 1m 52s shorter.
Waning Crescent, 6% of the Moon is Illuminated
Today
Waning Crescent
Sep 24
New
Oct 1
First Quarter
Oct 8
Full
Oct 15
Last Quarter

Today's Extremes

State Highs State Lows

Community

WunderPhotos

Upload Photos

1,755,212 photos uploaded!

WunderBlogs® & News

Nearby

Snow Depth

Station Depth Elevation
No new snow has been reported.

Earthquake Activity

City Distance Mag. Time & Date
No recent earthquake activity has been reported nearby.
Minimum magnitude displayed is 2.5.

Coastal Water Temperatures

Place Temperature
No Stations Reporting

Nearby Weather Stations